ESMS/MMX METAR and TAF weather

Enter ICAO airport designator
Station Type Date Time Source
ESMS METAR 2021/02/27 02:50 UTC NOAA

ESMS 270250Z 30005KT CAVOK 01/01 Q1030 R17/19//95


Station Type Date Time Source
ESMS Decoded METAR 2021/02/27 02:50 UTC NOAA

Malmo / Sturup, Sweden (ESMS) 55-33N 013-22E
Feb 26, 2021 - 09:50 PM EST / 2021.02.27 0250 UTC
Wind: from the WNW (300 degrees) at 6 MPH (5 KT):0
Visibility: greater than 7 mile(s):0
Temperature: 33 F (1 C)
Windchill: 26 F (-3 C):1
Dew Point: 33 F (1 C)
Relative Humidity: 100%
Pressure (altimeter): 30.42 in. Hg (1030 hPa)
ob: ESMS 270250Z 30005KT CAVOK 01/01 Q1030 R17/19//95
cycle: 3

Station Type Date Time Source
ESMS TAF 2021/02/26 18:33 UTC NOAA

TAF ESMS 261704Z 2618/2718 30012KT 9999 BKN018
BECMG 2716/2718 1500 BR BKN003

Example: see airport list